createdAt,value
2018-02-04T00:02:06.711Z,35.13
2018-02-04T00:04:34.196Z,28.83
2018-02-04T00:07:01.692Z,28.45
2018-02-04T00:09:29.175Z,29.27
2018-02-04T00:11:56.663Z,29.30
2018-02-04T00:14:24.913Z,33.60
2018-02-04T00:16:52.416Z,30.00
2018-02-04T00:19:19.918Z,30.15
2018-02-04T00:21:47.412Z,28.30
2018-02-04T00:24:15.763Z,30.95
2018-02-04T00:26:43.256Z,27.70
2018-02-04T00:29:10.737Z,26.58
2018-02-04T00:31:38.219Z,29.33
2018-02-04T00:34:05.701Z,24.10
2018-02-04T00:36:33.161Z,25.92
2018-02-04T00:39:00.698Z,25.67
2018-02-04T00:41:28.942Z,23.55
2018-02-04T00:43:56.427Z,23.40
2018-02-04T00:46:23.903Z,25.77
2018-02-04T00:48:51.393Z,26.67
2018-02-04T00:51:18.871Z,21.50
2018-02-04T00:53:47.130Z,23.30
2018-02-04T00:56:14.619Z,23.17
2018-02-04T00:58:42.155Z,26.25
2018-02-04T01:01:10.420Z,21.63
2018-02-04T01:03:38.654Z,22.93
2018-02-04T01:06:06.144Z,22.10
2018-02-04T01:08:33.648Z,21.73
2018-02-04T01:11:01.189Z,21.53
2018-02-04T01:13:29.451Z,20.92
2018-02-04T01:15:56.926Z,20.23
2018-02-04T01:18:24.427Z,20.37
2018-02-04T01:20:51.897Z,18.60
2018-02-04T01:23:20.127Z,20.83
2018-02-04T01:25:48.400Z,20.90
2018-02-04T01:28:16.271Z,21.90
2018-02-04T01:30:43.781Z,21.93
2018-02-04T01:33:12.020Z,18.20
2018-02-04T01:35:40.274Z,23.85
2018-02-04T01:38:07.741Z,18.90
2018-02-04T01:40:35.365Z,18.10
2018-02-04T01:43:02.871Z,18.03
2018-02-04T01:45:31.094Z,20.23
2018-02-04T01:48:07.343Z,19.37
2018-02-04T01:50:35.685Z,20.35
2018-02-04T01:53:03.185Z,20.00
2018-02-04T01:55:30.705Z,21.83
2018-02-04T01:57:58.194Z,25.15
2018-02-04T02:00:25.666Z,19.85
2018-02-04T02:02:53.153Z,23.12
2018-02-04T02:05:20.623Z,20.83
2018-02-04T02:07:48.449Z,21.10
2018-02-04T02:10:16.721Z,19.23
2018-02-04T02:12:44.199Z,21.30
2018-02-04T02:15:11.809Z,21.95
2018-02-04T02:17:39.298Z,22.23
2018-02-04T02:20:06.778Z,24.45
2018-02-04T02:22:34.282Z,21.50
2018-02-04T02:25:01.937Z,21.02
2018-02-04T02:27:29.413Z,19.10
2018-02-04T02:29:57.800Z,21.77
2018-02-04T02:32:25.315Z,26.48
2018-02-04T02:34:52.814Z,20.08
2018-02-04T02:37:20.321Z,21.12
2018-02-04T02:39:47.855Z,21.75
2018-02-04T02:42:16.096Z,20.52
2018-02-04T02:44:43.616Z,21.35
2018-02-04T02:47:11.098Z,23.45
2018-02-04T02:49:38.584Z,21.17
2018-02-04T02:52:06.853Z,24.58
2018-02-04T02:54:34.330Z,19.33
2018-02-04T02:57:01.913Z,19.15
2018-02-04T02:59:29.436Z,28.42
2018-02-04T03:01:57.696Z,22.05
2018-02-04T03:04:25.199Z,18.70
2018-02-04T03:06:52.667Z,22.02
2018-02-04T03:09:21.475Z,18.50
2018-02-04T03:11:49.711Z,20.37
2018-02-04T03:14:17.964Z,23.52
2018-02-04T03:16:45.456Z,19.20
2018-02-04T03:19:13.699Z,19.50
2018-02-04T03:21:41.956Z,20.08
2018-02-04T03:24:10.216Z,17.45
2018-02-04T03:26:37.708Z,19.92
2018-02-04T03:29:05.964Z,23.55
2018-02-04T03:31:33.598Z,21.15
2018-02-04T03:34:01.079Z,21.52
2018-02-04T03:39:22.368Z,18.48
2018-02-04T03:41:49.884Z,17.40
2018-02-04T03:44:17.376Z,20.17
2018-02-04T03:46:45.633Z,20.98
2018-02-04T03:49:13.903Z,17.27
2018-02-04T03:51:42.314Z,18.10
2018-02-04T03:54:10.569Z,19.62
2018-02-04T03:56:38.806Z,19.20
2018-02-04T03:59:07.219Z,17.50
2018-02-04T04:01:35.562Z,20.10
2018-02-04T04:04:03.061Z,19.70
2018-02-04T04:06:30.672Z,20.90
2018-02-04T04:08:58.178Z,18.20
2018-02-04T04:11:26.415Z,19.25
2018-02-04T04:13:54.678Z,17.27
2018-02-04T04:16:22.967Z,25.02
2018-02-04T04:18:50.477Z,16.50
2018-02-04T04:21:17.952Z,19.10
2018-02-04T04:23:46.192Z,19.37
2018-02-04T04:26:13.846Z,19.48
2018-02-04T04:28:41.340Z,20.00
2018-02-04T04:31:09.599Z,24.83
2018-02-04T04:33:37.095Z,19.40
2018-02-04T04:36:05.348Z,18.73
2018-02-04T04:38:32.838Z,20.12
2018-02-04T04:41:00.320Z,18.03
2018-02-04T04:43:27.876Z,19.65
2018-02-04T04:45:55.456Z,24.85
2018-02-04T04:48:22.983Z,25.48
2018-02-04T04:50:50.451Z,20.10
2018-02-04T04:53:18.107Z,20.92
2018-02-04T04:55:45.597Z,20.10
2018-02-04T04:58:13.106Z,20.67
2018-02-04T05:00:40.626Z,18.73
2018-02-04T05:03:08.108Z,19.25
2018-02-04T05:05:36.446Z,19.23
2018-02-04T05:08:03.934Z,20.23
2018-02-04T05:10:31.436Z,22.10
2018-02-04T05:12:59.079Z,21.92
2018-02-04T05:15:26.555Z,22.48
2018-02-04T05:17:54.860Z,24.87
2018-02-04T05:20:22.470Z,22.90
2018-02-04T05:22:49.948Z,24.73
2018-02-04T05:25:17.450Z,25.95
2018-02-04T05:27:44.937Z,24.52
2018-02-04T05:30:12.521Z,25.00
2018-02-04T05:32:39.997Z,28.80
2018-02-04T05:35:08.261Z,27.42
2018-02-04T05:37:36.571Z,28.77
2018-02-04T05:40:04.804Z,29.17
2018-02-04T05:42:32.274Z,28.50
2018-02-04T05:44:59.775Z,29.45
2018-02-04T05:47:27.269Z,28.40
2018-02-04T05:49:54.750Z,26.92
2018-02-04T05:52:22.238Z,31.92
2018-02-04T05:54:49.721Z,31.73
2018-02-04T05:57:17.220Z,30.35
2018-02-04T05:59:44.712Z,29.08
2018-02-04T06:02:12.203Z,32.58
2018-02-04T06:04:39.723Z,30.55
2018-02-04T06:07:07.223Z,32.70
2018-02-04T06:09:34.713Z,30.20
2018-02-04T06:12:02.230Z,31.80
2018-02-04T06:14:29.838Z,27.75
2018-02-04T06:16:58.088Z,29.27
2018-02-04T06:19:25.625Z,33.47
2018-02-04T06:21:53.882Z,29.02
2018-02-04T06:24:21.373Z,34.13
2018-02-04T06:26:48.855Z,34.55
2018-02-04T06:29:16.364Z,28.10
2018-02-04T06:31:43.857Z,33.63
2018-02-04T06:34:11.360Z,33.25
2018-02-04T06:36:38.843Z,34.15
2018-02-04T06:39:06.374Z,37.25
2018-02-04T06:41:33.848Z,33.17
2018-02-04T06:44:02.196Z,36.13
2018-02-04T06:46:30.435Z,36.40
2018-02-04T06:48:58.706Z,37.75
2018-02-04T06:51:26.200Z,42.33
2018-02-04T06:53:53.745Z,36.58
2018-02-04T06:56:21.242Z,29.95
2018-02-04T06:58:48.777Z,34.22
2018-02-04T07:01:17.028Z,30.98
2018-02-04T07:03:45.389Z,29.70
2018-02-04T07:06:12.884Z,33.30
2018-02-04T07:08:41.137Z,37.78
2018-02-04T07:11:08.637Z,35.95
2018-02-04T07:13:36.893Z,33.55
2018-02-04T07:16:04.370Z,35.72
2018-02-04T07:18:31.889Z,34.78
2018-02-04T07:20:59.372Z,34.67
2018-02-04T07:23:27.874Z,36.73
2018-02-04T07:25:56.312Z,40.33
2018-02-04T07:28:23.820Z,40.05
2018-02-04T07:30:51.295Z,41.50
2018-02-04T07:33:18.801Z,42.38
2018-02-04T07:35:46.292Z,39.08
2018-02-04T07:38:13.780Z,38.38
2018-02-04T07:40:42.057Z,39.35
2018-02-04T07:43:09.541Z,38.67
2018-02-04T07:45:37.797Z,42.03
2018-02-04T07:48:05.414Z,38.78
2018-02-04T07:50:32.902Z,40.93
2018-02-04T07:53:00.593Z,35.70
2018-02-04T07:55:28.118Z,35.97
2018-02-04T07:57:56.480Z,32.40
2018-02-04T08:00:23.984Z,33.73
2018-02-04T08:02:52.231Z,32.73
2018-02-04T08:05:19.743Z,37.00
2018-02-04T08:07:47.225Z,34.83
2018-02-04T08:10:15.502Z,36.73
2018-02-04T08:12:43.014Z,37.63
2018-02-04T08:15:10.491Z,36.87
2018-02-04T08:17:37.994Z,38.53
2018-02-04T08:20:05.479Z,33.27
2018-02-04T08:22:33.744Z,33.40
2018-02-04T08:25:01.238Z,35.53
2018-02-04T08:27:28.730Z,32.97
2018-02-04T08:29:56.243Z,32.30
2018-02-04T08:32:24.501Z,33.93
2018-02-04T08:34:51.980Z,36.20
2018-02-04T08:37:19.478Z,36.47
2018-02-04T08:39:46.956Z,40.20
2018-02-04T08:42:14.427Z,32.20
2018-02-04T08:44:41.930Z,36.23
2018-02-04T08:47:09.411Z,37.67
2018-02-04T08:49:36.944Z,42.90
2018-02-04T08:52:04.463Z,35.20
2018-02-04T08:54:31.949Z,32.03
2018-02-04T08:56:59.455Z,35.60
2018-02-04T08:59:27.074Z,36.33
2018-02-04T09:01:54.619Z,43.27
2018-02-04T09:04:22.885Z,34.77
2018-02-04T09:06:50.571Z,36.27
2018-02-04T09:09:18.050Z,31.20
2018-02-04T09:11:46.305Z,32.80
2018-02-04T09:14:14.078Z,35.70
2018-02-04T09:16:41.565Z,32.30
2018-02-04T09:19:09.049Z,43.00
2018-02-04T09:21:36.560Z,24.40
2018-02-04T09:24:04.095Z,22.17
2018-02-04T09:26:31.596Z,25.80
2018-02-04T09:29:00.055Z,27.03
2018-02-04T09:31:27.564Z,29.90
2018-02-04T09:33:55.945Z,32.60
2018-02-04T09:36:23.748Z,29.43
2018-02-04T09:38:51.195Z,27.80
2018-02-04T09:41:18.672Z,25.67
2018-02-04T09:43:46.206Z,26.77
2018-02-04T09:46:14.510Z,29.63
2018-02-04T09:48:42.877Z,34.97
2018-02-04T09:51:10.388Z,40.10
2018-02-04T09:53:37.851Z,32.90
2018-02-04T09:56:05.450Z,34.10
2018-02-04T09:58:32.991Z,34.47
2018-02-04T10:01:01.209Z,34.53
2018-02-04T10:03:28.824Z,36.37
2018-02-04T10:05:56.384Z,40.03
2018-02-04T10:08:23.863Z,37.00
2018-02-04T10:10:51.381Z,36.53
2018-02-04T10:13:18.877Z,35.57
2018-02-04T10:15:47.116Z,35.60
2018-02-04T10:18:14.619Z,35.73
2018-02-04T10:20:42.117Z,36.60
2018-02-04T10:23:09.603Z,38.70
2018-02-04T10:25:37.336Z,35.37
2018-02-04T10:28:04.838Z,31.80
2018-02-04T10:30:32.341Z,29.50
2018-02-04T10:32:59.820Z,34.73
2018-02-04T10:35:27.425Z,31.10
2018-02-04T10:37:55.012Z,30.30
2018-02-04T10:40:22.590Z,32.03
2018-02-04T10:42:50.075Z,37.30
2018-02-04T10:45:18.323Z,31.33
2018-02-04T10:47:46.729Z,32.33
2018-02-04T10:53:17.856Z,27.10
2018-02-04T10:55:46.105Z,28.47
2018-02-04T10:58:13.585Z,25.70
2018-02-04T11:00:41.084Z,30.83
2018-02-04T11:03:08.552Z,26.70
2018-02-04T11:05:36.040Z,24.00
2018-02-04T11:08:03.609Z,22.97
2018-02-04T11:10:31.075Z,25.23
2018-02-04T11:12:58.552Z,23.10
2018-02-04T11:15:26.801Z,25.57
2018-02-04T11:17:54.349Z,20.70
2018-02-04T11:20:21.814Z,19.63
2018-02-04T11:22:50.181Z,26.13
2018-02-04T11:25:17.646Z,26.30
2018-02-04T11:27:45.113Z,24.00
2018-02-04T11:30:12.618Z,23.10
2018-02-04T11:32:40.441Z,17.87
2018-02-04T11:35:08.763Z,13.60
2018-02-04T11:37:36.385Z,15.40
2018-02-04T11:40:04.064Z,16.80
2018-02-04T11:42:31.604Z,19.10
2018-02-04T11:44:59.092Z,15.63
2018-02-04T11:47:26.601Z,11.73
2018-02-04T11:49:54.972Z,11.03
2018-02-04T11:52:22.585Z,13.03
2018-02-04T11:54:50.873Z,16.40
2018-02-04T11:57:18.354Z,17.10
2018-02-04T11:59:45.831Z,12.93
2018-02-04T12:02:13.339Z,11.17
2018-02-04T12:04:41.561Z,13.27
2018-02-04T12:07:09.035Z,10.97
2018-02-04T12:09:36.593Z,9.40
2018-02-04T12:12:04.128Z,11.23
2018-02-04T12:14:31.655Z,9.93
2018-02-04T12:16:59.121Z,13.80
2018-02-04T12:19:26.597Z,11.40
2018-02-04T12:21:54.156Z,12.90
2018-02-04T12:24:21.635Z,13.67
2018-02-04T12:26:49.112Z,14.47
2018-02-04T12:29:16.674Z,10.47
2018-02-04T12:31:44.173Z,11.53
2018-02-04T12:34:12.586Z,12.33
2018-02-04T12:36:40.825Z,15.40
2018-02-04T12:39:08.375Z,9.63
2018-02-04T12:41:35.912Z,9.20
2018-02-04T12:44:03.378Z,8.43
2018-02-04T12:46:31.638Z,6.77
2018-02-04T12:48:59.884Z,4.80
2018-02-04T12:51:27.379Z,5.07
2018-02-04T12:53:54.853Z,8.40
2018-02-04T12:56:22.358Z,7.17
2018-02-04T12:58:50.655Z,11.70
2018-02-04T13:01:18.178Z,8.73
2018-02-04T13:03:46.449Z,7.50
2018-02-04T13:06:14.117Z,8.43
2018-02-04T13:08:41.605Z,7.37
2018-02-04T13:11:09.098Z,7.07
2018-02-04T13:13:37.328Z,8.70
2018-02-04T13:16:05.638Z,12.40
2018-02-04T13:18:33.166Z,7.27
2018-02-04T13:21:00.617Z,10.43
2018-02-04T13:23:29.097Z,9.83
2018-02-04T13:25:56.633Z,10.30
2018-02-04T13:28:24.255Z,20.30
2018-02-04T13:30:51.904Z,13.30
2018-02-04T13:33:19.396Z,11.47
2018-02-04T13:35:46.886Z,10.93
2018-02-04T13:38:15.132Z,11.57
2018-02-04T13:40:43.394Z,15.63
2018-02-04T13:43:10.906Z,12.47
2018-02-04T13:45:38.427Z,13.83
2018-02-04T13:48:06.655Z,12.07
2018-02-04T13:50:34.157Z,12.53
2018-02-04T13:53:01.639Z,13.17
2018-02-04T13:55:29.249Z,15.67
2018-02-04T13:57:56.765Z,13.37
2018-02-04T14:03:02.646Z,13.73
2018-02-04T14:05:30.217Z,12.60
2018-02-04T14:07:57.688Z,13.80
2018-02-04T14:10:25.169Z,14.87
2018-02-04T14:12:52.725Z,10.40
2018-02-04T14:15:20.244Z,13.00
2018-02-04T14:17:47.739Z,13.30
2018-02-04T14:20:15.965Z,17.43
2018-02-04T14:22:44.224Z,14.50
2018-02-04T14:25:11.712Z,15.27
2018-02-04T14:27:39.189Z,14.13
2018-02-04T14:30:06.674Z,12.67
2018-02-04T14:32:35.124Z,15.13
2018-02-04T14:35:02.615Z,16.27
2018-02-04T14:37:30.221Z,17.83
2018-02-04T14:39:58.445Z,15.80
2018-02-04T14:42:25.946Z,16.70
2018-02-04T14:44:54.203Z,15.63
2018-02-04T14:47:21.678Z,17.90
2018-02-04T14:49:49.987Z,15.10
2018-02-04T14:52:17.495Z,14.50
2018-02-04T14:54:44.954Z,12.87
2018-02-04T14:57:12.419Z,12.93
2018-02-04T14:59:39.924Z,13.20
2018-02-04T15:02:07.429Z,14.77
2018-02-04T15:04:34.945Z,13.07
2018-02-04T15:07:02.490Z,12.57
2018-02-04T15:09:30.063Z,11.40
2018-02-04T15:11:57.688Z,14.10
2018-02-04T15:14:25.161Z,14.05
2018-02-04T15:16:52.667Z,13.57
2018-02-04T15:19:20.947Z,12.83
2018-02-04T15:21:48.432Z,11.25
2018-02-04T15:24:15.971Z,13.55
2018-02-04T15:26:43.524Z,16.95
2018-02-04T15:29:11.068Z,15.50
2018-02-04T15:31:38.785Z,17.15
2018-02-04T15:34:07.363Z,19.40
2018-02-04T15:36:35.033Z,18.08
2018-02-04T15:39:02.567Z,21.75
2018-02-04T15:41:30.097Z,18.75
2018-02-04T15:43:57.621Z,17.98
2018-02-04T15:46:25.150Z,21.63
2018-02-04T15:48:53.402Z,17.57
2018-02-04T15:51:20.870Z,16.95
2018-02-04T15:53:48.449Z,16.60
2018-02-04T15:56:16.005Z,15.93
2018-02-04T15:58:44.466Z,16.08
2018-02-04T16:01:12.037Z,15.75
2018-02-04T16:03:39.501Z,17.15
2018-02-04T16:06:07.014Z,18.10
2018-02-04T16:08:34.508Z,18.37
2018-02-04T16:11:01.973Z,21.35
2018-02-04T16:13:29.474Z,21.20
2018-02-04T16:15:56.984Z,21.62
2018-02-04T16:18:25.248Z,22.10
2018-02-04T16:20:52.727Z,24.60
2018-02-04T16:23:20.381Z,25.23
2018-02-04T16:25:47.929Z,23.12
2018-02-04T16:28:15.340Z,23.05
2018-02-04T16:30:43.002Z,31.27
2018-02-04T16:33:11.250Z,22.17
2018-02-04T16:35:38.745Z,25.88
2018-02-04T16:38:06.231Z,21.42
2018-02-04T16:40:33.702Z,22.75
2018-02-04T16:43:01.249Z,19.48
2018-02-04T16:45:29.528Z,25.30
2018-02-04T16:47:57.024Z,20.62
2018-02-04T16:50:25.250Z,26.40
2018-02-04T16:52:52.753Z,25.17
2018-02-04T16:55:20.260Z,24.85
2018-02-04T16:57:47.805Z,25.80
2018-02-04T17:00:15.326Z,30.23
2018-02-04T17:02:43.033Z,29.80
2018-02-04T17:05:10.502Z,26.75
2018-02-04T17:07:38.074Z,27.13
2018-02-04T17:10:05.670Z,29.05
2018-02-04T17:12:33.135Z,23.17
2018-02-04T17:15:00.618Z,25.33
2018-02-04T17:17:28.158Z,26.95
2018-02-04T17:19:56.581Z,25.60
2018-02-04T17:22:24.212Z,33.65
2018-02-04T17:24:51.696Z,24.63
2018-02-04T17:27:19.174Z,30.85
2018-02-04T17:29:46.686Z,30.98
2018-02-04T17:32:14.163Z,24.48
2018-02-04T17:34:41.762Z,24.70
2018-02-04T17:37:10.032Z,28.80
2018-02-04T17:39:37.594Z,25.52
2018-02-04T17:42:06.040Z,23.12
2018-02-04T17:44:33.506Z,22.80
2018-02-04T17:47:01.016Z,20.35
2018-02-04T17:49:28.544Z,24.83
2018-02-04T17:51:56.251Z,26.80
2018-02-04T17:54:23.765Z,27.17
2018-02-04T17:56:51.237Z,25.10
2018-02-04T17:59:18.720Z,24.33
2018-02-04T18:01:46.212Z,23.92
2018-02-04T18:04:13.677Z,22.67
2018-02-04T18:06:41.182Z,28.20
2018-02-04T18:09:08.686Z,26.23
2018-02-04T18:11:36.172Z,29.75
2018-02-04T18:14:04.519Z,23.55
2018-02-04T18:16:32.007Z,29.12
2018-02-04T18:18:59.505Z,30.42
2018-02-04T18:21:26.997Z,24.20
2018-02-04T18:23:54.470Z,29.83
2018-02-04T18:26:21.953Z,27.52
2018-02-04T18:28:50.220Z,25.73
2018-02-04T18:31:17.730Z,24.92
2018-02-04T18:33:45.274Z,32.10
2018-02-04T18:36:13.542Z,33.58
2018-02-04T18:38:41.042Z,36.03
2018-02-04T18:41:08.529Z,31.17
2018-02-04T18:43:36.867Z,32.55
2018-02-04T18:46:04.391Z,33.08
2018-02-04T18:48:31.878Z,35.00
2018-02-04T18:50:59.442Z,37.95
2018-02-04T18:53:26.951Z,41.00
2018-02-04T18:55:54.417Z,36.42
2018-02-04T18:58:22.539Z,36.35
2018-02-04T19:00:50.227Z,38.92
2018-02-04T19:03:17.779Z,41.50
2018-02-04T19:05:45.366Z,37.50
2018-02-04T19:08:13.207Z,44.60
2018-02-04T19:10:41.474Z,45.47
2018-02-04T19:13:08.962Z,41.28
2018-02-04T19:15:36.495Z,40.30
2018-02-04T19:18:04.068Z,43.05
2018-02-04T19:20:32.348Z,34.05
2018-02-04T19:23:01.348Z,43.55
2018-02-04T19:25:28.915Z,35.00
2018-02-04T19:27:56.484Z,41.17
2018-02-04T19:30:24.128Z,38.95
2018-02-04T19:32:52.371Z,42.65
2018-02-04T19:35:19.874Z,39.72
2018-02-04T19:37:49.054Z,36.33
2018-02-04T19:40:16.533Z,42.40
2018-02-04T19:42:44.095Z,45.42
2018-02-04T19:45:11.614Z,37.63
2018-02-04T19:47:39.285Z,40.50
2018-02-04T19:50:06.803Z,40.58
2018-02-04T19:52:34.277Z,42.55
2018-02-04T19:55:01.747Z,40.72
2018-02-04T19:57:29.274Z,38.05
2018-02-04T19:59:57.558Z,37.17
2018-02-04T20:02:25.096Z,47.90
2018-02-04T20:04:52.602Z,41.63
2018-02-04T20:07:20.151Z,41.10
2018-02-04T20:09:48.204Z,40.60
2018-02-04T20:12:15.741Z,43.65
2018-02-04T20:14:43.297Z,44.80
2018-02-04T20:17:11.631Z,45.00
2018-02-04T20:19:39.128Z,34.97
2018-02-04T20:22:06.622Z,41.03
2018-02-04T20:24:34.178Z,41.03
2018-02-04T20:27:01.661Z,40.90
2018-02-04T20:29:29.167Z,41.47
2018-02-04T20:31:56.811Z,40.75
2018-02-04T20:34:36.857Z,44.95
2018-02-04T20:37:04.393Z,46.63
2018-02-04T20:39:31.879Z,50.97
2018-02-04T20:42:00.147Z,50.88
2018-02-04T20:44:28.388Z,50.85
2018-02-04T20:46:55.911Z,52.30
2018-02-04T20:49:23.436Z,54.90
2018-02-04T20:51:50.945Z,56.28
2018-02-04T20:54:18.483Z,50.65
2018-02-04T20:56:46.741Z,51.30
2018-02-04T20:59:14.245Z,51.42
2018-02-04T21:01:41.855Z,53.00
2018-02-04T21:04:10.129Z,53.28
2018-02-04T21:06:37.587Z,60.45
2018-02-04T21:09:05.128Z,56.53
2018-02-04T21:11:33.430Z,54.63
2018-02-04T21:14:01.677Z,51.85
2018-02-04T21:16:29.251Z,58.00
2018-02-04T21:18:56.855Z,63.78
2018-02-04T21:21:24.360Z,59.20
2018-02-04T21:23:51.862Z,64.87
2018-02-04T21:26:20.087Z,57.53
2018-02-04T21:28:47.587Z,65.28
2018-02-04T21:31:15.062Z,66.03
2018-02-04T21:33:42.611Z,67.15
2018-02-04T21:36:10.114Z,53.42
2018-02-04T21:38:38.535Z,65.82
2018-02-04T21:41:06.060Z,65.72
2018-02-04T21:43:33.524Z,67.85
2018-02-04T21:46:01.075Z,72.50
2018-02-04T21:48:29.479Z,69.12
2018-02-04T21:50:57.014Z,63.65
2018-02-04T21:53:24.541Z,69.25
2018-02-04T21:55:52.986Z,62.97
2018-02-04T21:58:20.580Z,66.43
2018-02-04T22:00:48.107Z,64.82
2018-02-04T22:03:16.539Z,66.47
2018-02-04T22:05:44.016Z,72.05
2018-02-04T22:08:12.283Z,68.82
2018-02-04T22:10:39.747Z,60.08
2018-02-04T22:13:07.231Z,70.10
2018-02-04T22:15:34.845Z,68.85
2018-02-04T22:18:03.137Z,70.22
2018-02-04T22:20:30.792Z,67.53
2018-02-04T22:22:58.283Z,68.60
2018-02-04T22:25:25.760Z,71.70
2018-02-04T22:27:53.296Z,83.20
2018-02-04T22:30:21.792Z,73.20
2018-02-04T22:32:50.058Z,81.22
2018-02-04T22:35:17.516Z,75.85
2018-02-04T22:37:45.805Z,91.28
2018-02-04T22:40:13.360Z,81.95
2018-02-04T22:42:41.631Z,73.25
2018-02-04T22:45:09.143Z,78.82
2018-02-04T22:47:37.464Z,77.60
2018-02-04T22:50:05.934Z,83.22
2018-02-04T22:52:33.397Z,71.43
2018-02-04T22:55:00.939Z,72.20
2018-02-04T22:57:28.442Z,71.40
2018-02-04T22:59:55.928Z,69.60
2018-02-04T23:02:23.549Z,73.37
2018-02-04T23:04:51.042Z,71.78
2018-02-04T23:07:18.676Z,76.20
2018-02-04T23:09:46.140Z,77.65
2018-02-04T23:12:14.616Z,74.22
2018-02-04T23:14:42.100Z,83.12
2018-02-04T23:17:09.572Z,76.25
2018-02-04T23:19:37.130Z,80.95
2018-02-04T23:22:05.388Z,76.03
2018-02-04T23:24:33.637Z,80.32
2018-02-04T23:27:01.132Z,87.28
2018-02-04T23:29:28.615Z,80.35
2018-02-04T23:31:56.128Z,81.57
2018-02-04T23:34:24.466Z,79.12
2018-02-04T23:36:51.943Z,71.00
2018-02-04T23:39:19.475Z,75.70
2018-02-04T23:41:46.990Z,78.70
2018-02-04T23:44:14.504Z,78.40
